createdAt,value
2019-04-22T00:01:36.877Z,6.03
2019-04-22T00:04:13.519Z,5.85
2019-04-22T00:07:05.804Z,5.10
2019-04-22T00:09:43.911Z,5.92
2019-04-22T00:12:16.608Z,5.22
2019-04-22T00:14:42.095Z,6.67
2019-04-22T00:17:26.233Z,6.20
2019-04-22T00:20:03.104Z,5.33
2019-04-22T00:22:29.215Z,5.65
2019-04-22T00:25:02.988Z,5.80
2019-04-22T00:27:39.181Z,5.55
2019-04-22T00:30:13.773Z,5.85
2019-04-22T00:32:38.265Z,5.50
2019-04-22T00:35:14.726Z,6.35
2019-04-22T00:37:53.151Z,5.72
2019-04-22T00:40:19.661Z,5.42
2019-04-22T00:42:55.422Z,5.75
2019-04-22T00:45:26.864Z,6.50
2019-04-22T00:48:01.087Z,5.78
2019-04-22T00:50:38.870Z,5.25
2019-04-22T00:53:11.956Z,5.37
2019-04-22T00:55:52.297Z,5.55
2019-04-22T00:58:17.833Z,5.95
2019-04-22T01:00:57.594Z,5.65
2019-04-22T01:03:32.289Z,5.22
2019-04-22T01:06:07.759Z,5.72
2019-04-22T01:08:40.486Z,5.95
2019-04-22T01:11:14.867Z,6.23
2019-04-22T01:13:38.686Z,6.85
2019-04-22T01:16:21.627Z,6.60
2019-04-22T01:18:48.754Z,6.67
2019-04-22T01:23:53.248Z,6.17
2019-04-22T01:26:24.224Z,7.12
2019-04-22T01:28:58.909Z,6.67
2019-04-22T01:31:24.899Z,6.67
2019-04-22T01:34:14.147Z,6.67
2019-04-22T01:36:51.577Z,7.10
2019-04-22T01:39:25.857Z,6.17
2019-04-22T01:42:30.826Z,7.20
2019-04-22T01:47:10.369Z,6.60
2019-04-22T01:49:42.552Z,6.58
2019-04-22T01:52:15.912Z,6.13
2019-04-22T01:54:46.816Z,5.87
2019-04-22T01:57:20.915Z,6.12
2019-04-22T01:59:46.230Z,6.90
2019-04-22T02:02:32.137Z,6.63
2019-04-22T02:05:02.700Z,7.07
2019-04-22T02:07:34.388Z,6.70
2019-04-22T02:10:02.350Z,6.50
2019-04-22T02:12:38.610Z,6.53
2019-04-22T02:15:13.779Z,6.87
2019-04-22T02:17:47.775Z,7.23
2019-04-22T02:20:23.869Z,7.17
2019-04-22T02:23:23.965Z,6.62
2019-04-22T02:25:32.284Z,6.40
2019-04-22T02:28:11.104Z,6.40
2019-04-22T02:30:55.734Z,6.60
2019-04-22T02:33:43.241Z,6.60
2019-04-22T02:36:15.123Z,6.93
2019-04-22T02:38:36.488Z,6.70
2019-04-22T02:41:21.033Z,6.67
2019-04-22T02:43:46.490Z,7.07
2019-04-22T02:51:12.430Z,6.90
2019-04-22T03:09:03.428Z,8.17
2019-04-22T03:11:56.694Z,7.87
2019-04-22T03:14:04.770Z,7.10
2019-04-22T03:16:50.411Z,8.10
2019-04-22T03:19:25.931Z,8.20
2019-04-22T03:22:00.665Z,8.63
2019-04-22T03:24:25.871Z,8.53
2019-04-22T03:27:07.812Z,8.87
2019-04-22T03:29:35.149Z,8.67
2019-04-22T03:32:32.651Z,8.37
2019-04-22T03:37:26.975Z,8.27
2019-04-22T03:44:54.337Z,7.33
2019-04-22T03:47:31.831Z,7.57
2019-04-22T03:52:20.367Z,8.63
2019-04-22T03:55:03.229Z,10.00
2019-04-22T04:00:22.028Z,8.90
2019-04-22T04:02:46.662Z,8.43
2019-04-22T04:05:21.741Z,7.67
2019-04-22T04:07:52.018Z,6.57
2019-04-22T04:10:29.964Z,6.47
2019-04-22T04:20:42.121Z,7.83
2019-04-22T04:23:07.950Z,6.97
2019-04-22T04:25:42.723Z,7.43
2019-04-22T04:33:18.543Z,8.13
2019-04-22T04:36:01.964Z,8.23
2019-04-22T04:38:24.316Z,7.43
2019-04-22T04:43:33.209Z,7.33
2019-04-22T04:48:44.753Z,8.10
2019-04-22T04:53:31.861Z,8.23
2019-04-22T04:56:22.276Z,8.57
2019-04-22T04:58:55.861Z,8.40
2019-04-22T05:01:23.220Z,7.60
2019-04-22T05:11:43.014Z,8.27
2019-04-22T05:14:06.329Z,9.20
2019-04-22T05:16:40.827Z,8.10
2019-04-22T05:19:22.578Z,7.80
2019-04-22T05:21:36.363Z,7.17
2019-04-22T05:24:16.558Z,7.53
2019-04-22T05:26:48.756Z,7.60
2019-04-22T05:29:19.693Z,8.20
2019-04-22T05:31:51.784Z,8.33
2019-04-22T05:34:33.489Z,8.83
2019-04-22T05:36:55.415Z,8.23
2019-04-22T05:39:24.201Z,8.13
2019-04-22T05:42:04.158Z,7.33
2019-04-22T05:47:08.059Z,7.53
2019-04-22T05:49:39.322Z,7.60
2019-04-22T05:52:17.374Z,7.30
2019-04-22T05:54:48.208Z,6.83
2019-04-22T05:57:20.205Z,7.17
2019-04-22T05:59:52.254Z,7.97
2019-04-22T06:02:30.539Z,7.90
2019-04-22T06:05:06.980Z,7.23
2019-04-22T06:07:32.454Z,7.03
2019-04-22T06:10:15.842Z,9.10
2019-04-22T06:12:41.738Z,10.35
2019-04-22T06:15:20.754Z,9.17
2019-04-22T06:18:02.769Z,8.20
2019-04-22T06:20:32.650Z,7.70
2019-04-22T06:23:04.100Z,9.63
2019-04-22T06:26:08.001Z,8.35
2019-04-22T06:28:23.569Z,7.70
2019-04-22T06:30:50.314Z,8.03
2019-04-22T06:33:20.792Z,6.92
2019-04-22T06:35:50.663Z,7.15
2019-04-22T06:40:54.257Z,6.70
2019-04-22T06:43:35.466Z,6.90
2019-04-22T06:46:01.675Z,6.72
2019-04-22T06:48:47.901Z,7.20
2019-04-22T06:51:06.343Z,7.27
2019-04-22T06:53:41.132Z,7.30
2019-04-22T06:56:10.971Z,7.28
2019-04-22T06:58:47.744Z,6.58
2019-04-22T07:06:26.460Z,7.55
2019-04-22T07:09:15.995Z,7.83
2019-04-22T07:11:23.672Z,6.53
2019-04-22T07:14:01.575Z,6.58
2019-04-22T07:19:12.322Z,6.83
2019-04-22T07:21:37.640Z,7.12
2019-04-22T07:24:27.683Z,7.85
2019-04-22T07:26:49.193Z,8.95
2019-04-22T07:29:19.928Z,6.60
2019-04-22T07:31:55.720Z,6.20
2019-04-22T07:34:27.675Z,6.50
2019-04-22T07:37:00.408Z,6.55
2019-04-22T07:39:30.888Z,6.55
2019-04-22T07:41:59.523Z,6.17
2019-04-22T07:44:52.855Z,6.58
2019-04-22T07:47:15.214Z,6.90
2019-04-22T07:52:15.925Z,7.60
2019-04-22T07:54:46.795Z,9.33
2019-04-22T07:57:27.844Z,7.80
2019-04-22T07:59:58.063Z,6.75
2019-04-22T08:02:23.646Z,7.90
2019-04-22T08:07:30.152Z,7.37
2019-04-22T08:10:09.278Z,7.45
2019-04-22T08:15:06.274Z,6.95
2019-04-22T08:20:18.837Z,6.60
2019-04-22T08:22:49.015Z,5.75
2019-04-22T08:25:16.736Z,4.97
2019-04-22T08:27:50.805Z,4.80
2019-04-22T08:30:28.533Z,4.20
2019-04-22T08:32:53.258Z,4.30
2019-04-22T08:35:40.856Z,5.25
2019-04-22T08:37:57.701Z,4.78
2019-04-22T08:40:43.255Z,6.30
2019-04-22T08:43:14.439Z,5.35
2019-04-22T08:45:44.356Z,4.65
2019-04-22T08:48:18.537Z,5.28
2019-04-22T08:50:44.190Z,3.80
2019-04-22T08:53:29.049Z,5.90
2019-04-22T08:56:04.706Z,4.53
2019-04-22T08:58:27.997Z,5.75
2019-04-22T09:03:30.562Z,5.80
2019-04-22T09:06:15.291Z,5.92
2019-04-22T09:08:42.439Z,5.80
2019-04-22T09:11:18.463Z,5.45
2019-04-22T09:13:50.468Z,6.37
2019-04-22T09:16:20.780Z,5.33
2019-04-22T09:18:48.751Z,6.22
2019-04-22T09:21:31.630Z,6.05
2019-04-22T09:24:05.284Z,5.60
2019-04-22T09:26:36.104Z,5.30
2019-04-22T09:29:15.577Z,6.05
2019-04-22T09:31:44.449Z,5.10
2019-04-22T09:34:22.586Z,4.80
2019-04-22T09:36:58.943Z,5.80
2019-04-22T09:39:29.485Z,6.08
2019-04-22T09:42:02.624Z,6.55
2019-04-22T09:44:36.653Z,5.85
2019-04-22T09:47:08.024Z,6.30
2019-04-22T09:49:46.855Z,6.33
2019-04-22T09:52:11.589Z,5.62
2019-04-22T09:54:52.806Z,5.40
2019-04-22T09:57:15.788Z,5.00
2019-04-22T09:59:57.913Z,5.80
2019-04-22T10:02:24.976Z,5.72
2019-04-22T10:05:03.549Z,5.28
2019-04-22T10:07:49.141Z,6.10
2019-04-22T10:12:41.497Z,5.83
2019-04-22T10:15:10.159Z,5.45
2019-04-22T10:17:47.791Z,5.10
2019-04-22T10:25:16.355Z,5.22
2019-04-22T10:27:55.705Z,5.35
2019-04-22T10:30:33.314Z,5.62
2019-04-22T10:32:56.283Z,5.47
2019-04-22T10:35:15.568Z,5.42
2019-04-22T10:37:42.769Z,4.03
2019-04-22T10:40:17.749Z,5.10
2019-04-22T10:42:51.459Z,4.80
2019-04-22T10:45:23.948Z,4.17
2019-04-22T10:47:56.068Z,4.30
2019-04-22T10:50:32.996Z,4.58
2019-04-22T10:53:03.553Z,4.42
2019-04-22T10:55:35.099Z,4.17
2019-04-22T10:58:06.731Z,4.78
2019-04-22T11:00:39.636Z,3.80
2019-04-22T11:03:12.206Z,4.40
2019-04-22T11:05:44.310Z,4.85
2019-04-22T11:08:24.320Z,4.47
2019-04-22T11:11:05.852Z,4.20
2019-04-22T11:13:22.380Z,5.70
2019-04-22T11:15:55.506Z,4.90
2019-04-22T11:18:27.537Z,5.65
2019-04-22T11:20:59.749Z,4.40
2019-04-22T11:23:32.258Z,4.83
2019-04-22T11:26:05.991Z,4.33
2019-04-22T11:28:38.030Z,5.00
2019-04-22T11:31:10.372Z,4.92
2019-04-22T11:33:42.690Z,4.28
2019-04-22T11:36:13.876Z,5.03
2019-04-22T11:38:51.139Z,4.60
2019-04-22T11:41:17.257Z,5.35
2019-04-22T11:43:49.423Z,4.58
2019-04-22T11:46:21.099Z,6.00
2019-04-22T11:48:52.339Z,5.95
2019-04-22T11:51:24.345Z,5.92
2019-04-22T11:53:56.734Z,5.60
2019-04-22T11:56:29.213Z,5.28
2019-04-22T11:59:00.749Z,5.00
2019-04-22T12:01:32.985Z,5.12
2019-04-22T12:04:04.312Z,4.67
2019-04-22T12:06:36.005Z,5.03
2019-04-22T12:09:12.129Z,5.97
2019-04-22T12:11:44.421Z,5.65
2019-04-22T12:14:16.176Z,5.55
2019-04-22T12:16:49.734Z,5.37
2019-04-22T12:19:21.419Z,6.72
2019-04-22T12:21:53.325Z,6.15
2019-04-22T12:24:25.233Z,5.25
2019-04-22T12:26:58.025Z,5.60
2019-04-22T12:29:44.870Z,5.70
2019-04-22T12:32:17.785Z,5.28
2019-04-22T12:34:49.496Z,6.00
2019-04-22T12:37:29.015Z,5.90
2019-04-22T12:39:56.550Z,5.60
2019-04-22T12:42:29.340Z,4.70
2019-04-22T12:45:00.626Z,5.47
2019-04-22T12:47:33.528Z,4.95
2019-04-22T12:50:17.543Z,5.85
2019-04-22T12:52:47.811Z,5.55
2019-04-22T12:55:14.323Z,5.08
2019-04-22T12:57:46.523Z,4.62
2019-04-22T13:00:20.440Z,5.40
2019-04-22T13:02:54.754Z,4.97
2019-04-22T13:05:26.933Z,4.60
2019-04-22T13:07:59.901Z,5.00
2019-04-22T13:10:41.624Z,5.00
2019-04-22T13:13:05.112Z,4.85
2019-04-22T13:15:37.013Z,4.72
2019-04-22T13:18:16.932Z,4.97
2019-04-22T13:20:42.226Z,4.95
2019-04-22T13:23:13.899Z,4.78
2019-04-22T13:25:45.087Z,3.95
2019-04-22T13:28:16.790Z,4.83
2019-04-22T13:30:48.636Z,4.40
2019-04-22T13:33:21.042Z,5.30
2019-04-22T13:35:54.376Z,4.85
2019-04-22T13:38:29.045Z,4.35
2019-04-22T13:41:12.209Z,4.08
2019-04-22T13:43:34.710Z,4.22
2019-04-22T13:46:06.125Z,5.03
2019-04-22T13:49:08.739Z,4.30
2019-04-22T13:51:45.232Z,5.72
2019-04-22T13:54:42.380Z,4.67
2019-04-22T13:56:43.866Z,5.05
2019-04-22T13:59:07.296Z,4.75
2019-04-22T14:01:30.356Z,3.92
2019-04-22T14:04:04.889Z,5.05
2019-04-22T14:06:38.794Z,4.60
2019-04-22T14:09:11.672Z,4.78
2019-04-22T14:11:50.542Z,4.80
2019-04-22T14:14:17.704Z,4.85
2019-04-22T14:16:50.910Z,4.87
2019-04-22T14:19:23.730Z,4.70
2019-04-22T14:21:55.704Z,5.37
2019-04-22T14:24:27.927Z,5.92
2019-04-22T14:27:15.189Z,5.92
2019-04-22T14:29:35.709Z,5.42
2019-04-22T14:32:15.457Z,4.85
2019-04-22T14:34:42.793Z,4.75
2019-04-22T14:37:16.457Z,5.28
2019-04-22T14:39:49.902Z,5.25
2019-04-22T14:42:47.299Z,5.03
2019-04-22T14:47:56.026Z,5.17
2019-04-22T14:50:22.202Z,5.47
2019-04-22T14:53:00.985Z,5.72
2019-04-22T14:55:19.004Z,4.87
2019-04-22T14:57:44.257Z,4.67
2019-04-22T15:00:19.765Z,4.92
2019-04-22T15:02:52.141Z,4.97
2019-04-22T15:05:30.177Z,4.42
2019-04-22T15:08:04.833Z,4.58
2019-04-22T15:10:38.045Z,4.60
2019-04-22T15:13:11.616Z,4.42
2019-04-22T15:15:48.039Z,4.80
2019-04-22T15:18:19.985Z,4.35
2019-04-22T15:23:22.828Z,5.35
2019-04-22T15:25:54.743Z,4.17
2019-04-22T15:28:27.183Z,5.12
2019-04-22T15:30:59.377Z,5.00
2019-04-22T15:33:30.322Z,4.60
2019-04-22T15:36:01.425Z,4.85
2019-04-22T15:38:32.396Z,4.50
2019-04-22T15:41:06.856Z,4.70
2019-04-22T15:43:39.542Z,4.25
2019-04-22T15:46:14.223Z,5.08
2019-04-22T15:48:46.300Z,4.20
2019-04-22T15:51:18.432Z,4.20
2019-04-22T15:53:55.804Z,4.95
2019-04-22T15:56:28.447Z,4.40
2019-04-22T15:58:59.787Z,4.22
2019-04-22T16:01:35.162Z,4.60
2019-04-22T16:04:03.244Z,4.87
2019-04-22T16:06:34.740Z,4.60
2019-04-22T16:09:11.114Z,3.77
2019-04-22T16:11:43.653Z,5.37
2019-04-22T16:14:22.871Z,5.40
2019-04-22T16:16:48.401Z,4.95
2019-04-22T16:19:19.141Z,5.30
2019-04-22T16:21:56.491Z,4.92
2019-04-22T16:24:22.634Z,4.95
2019-04-22T16:26:56.111Z,4.97
2019-04-22T16:29:27.442Z,5.10
2019-04-22T16:31:58.777Z,4.85
2019-04-22T16:34:31.176Z,5.03
2019-04-22T16:37:02.885Z,5.97
2019-04-22T16:39:34.003Z,8.23
2019-04-22T16:42:05.000Z,8.50
2019-04-22T16:44:36.538Z,8.50
2019-04-22T16:47:08.064Z,8.45
2019-04-22T16:49:39.341Z,7.50
2019-04-22T16:52:12.241Z,5.35
2019-04-22T16:54:44.477Z,6.05
2019-04-22T16:57:15.958Z,5.35
2019-04-22T16:59:49.004Z,4.65
2019-04-22T17:02:22.717Z,4.78
2019-04-22T17:04:55.912Z,5.15
2019-04-22T17:07:26.839Z,6.42
2019-04-22T17:09:59.623Z,6.40
2019-04-22T17:12:44.319Z,5.62
2019-04-22T17:15:09.827Z,5.75
2019-04-22T17:17:41.242Z,5.65
2019-04-22T17:20:15.487Z,5.87
2019-04-22T17:22:49.316Z,6.72
2019-04-22T17:25:32.133Z,6.90
2019-04-22T17:28:05.668Z,7.20
2019-04-22T17:30:36.590Z,8.00
2019-04-22T17:33:12.739Z,10.38
2019-04-22T17:35:52.753Z,7.87
2019-04-22T17:38:40.790Z,8.43
2019-04-22T17:41:19.038Z,7.47
2019-04-22T17:43:59.225Z,9.18
2019-04-22T17:46:28.175Z,8.83
2019-04-22T17:49:04.012Z,9.10
2019-04-22T17:51:36.658Z,9.60
2019-04-22T17:54:19.112Z,8.70
2019-04-22T17:56:58.546Z,11.38
2019-04-22T17:59:32.482Z,8.43
2019-04-22T18:02:05.795Z,9.45
2019-04-22T18:04:20.016Z,8.15
2019-04-22T18:07:19.128Z,8.63
2019-04-22T18:10:21.006Z,8.83
2019-04-22T18:12:29.167Z,8.03
2019-04-22T18:14:59.839Z,8.18
2019-04-22T18:17:29.187Z,8.23
2019-04-22T18:19:59.025Z,8.00
2019-04-22T18:22:25.756Z,8.93
2019-04-22T18:25:03.852Z,9.25
2019-04-22T18:30:21.933Z,9.28
2019-04-22T18:33:04.220Z,8.40
2019-04-22T18:35:37.922Z,8.23
2019-04-22T18:38:21.942Z,8.28
2019-04-22T18:40:45.970Z,8.20
2019-04-22T18:43:26.079Z,7.40
2019-04-22T18:46:00.259Z,7.37
2019-04-22T18:48:21.772Z,8.03
2019-04-22T18:51:11.921Z,7.60
2019-04-22T18:53:41.671Z,6.80
2019-04-22T18:56:16.605Z,7.30
2019-04-22T18:58:42.105Z,7.45
2019-04-22T19:01:01.882Z,6.85
2019-04-22T19:03:44.720Z,6.70
2019-04-22T19:06:34.073Z,7.72
2019-04-22T19:09:08.715Z,7.28
2019-04-22T19:11:38.754Z,6.55
2019-04-22T19:14:10.822Z,6.70
2019-04-22T19:17:07.705Z,5.70
2019-04-22T19:19:30.356Z,6.78
2019-04-22T19:21:51.351Z,5.80
2019-04-22T19:24:51.771Z,6.25
2019-04-22T19:27:34.603Z,5.47
2019-04-22T19:30:10.745Z,5.33
2019-04-22T19:32:40.395Z,5.40
2019-04-22T19:35:14.378Z,5.33
2019-04-22T19:37:41.322Z,5.85
2019-04-22T19:40:24.110Z,5.90
2019-04-22T19:43:02.464Z,6.35
2019-04-22T19:45:34.303Z,6.33
2019-04-22T19:48:17.790Z,5.80
2019-04-22T19:50:52.750Z,6.45
2019-04-22T19:53:22.695Z,6.67
2019-04-22T19:55:55.563Z,6.25
2019-04-22T19:58:28.057Z,6.92
2019-04-22T20:01:02.409Z,6.40
2019-04-22T20:03:50.417Z,6.67
2019-04-22T20:06:16.146Z,7.30
2019-04-22T20:08:57.547Z,7.35
2019-04-22T20:11:26.563Z,7.67
2019-04-22T20:14:02.452Z,7.85
2019-04-22T20:16:27.490Z,7.75
2019-04-22T20:19:06.612Z,8.43
2019-04-22T20:21:40.499Z,8.65
2019-04-22T20:24:12.344Z,8.50
2019-04-22T20:27:04.158Z,11.03
2019-04-22T20:29:41.552Z,10.03
2019-04-22T20:32:12.087Z,10.88
2019-04-22T20:34:51.264Z,10.72
2019-04-22T20:37:26.248Z,10.18
2019-04-22T20:39:53.086Z,10.72
2019-04-22T20:42:36.950Z,10.50
2019-04-22T20:45:05.418Z,10.40
2019-04-22T20:47:32.234Z,11.25
2019-04-22T20:50:05.464Z,11.22
2019-04-22T20:52:50.231Z,12.28
2019-04-22T20:55:07.998Z,10.93
2019-04-22T20:57:49.756Z,12.37
2019-04-22T21:00:23.838Z,11.25
2019-04-22T21:02:54.031Z,11.25
2019-04-22T21:05:32.766Z,11.95
2019-04-22T21:08:11.238Z,11.38
2019-04-22T21:10:42.601Z,11.78
2019-04-22T21:13:13.878Z,11.35
2019-04-22T21:15:53.132Z,12.47
2019-04-22T21:18:19.210Z,12.43
2019-04-22T21:21:02.542Z,12.43
2019-04-22T21:23:30.120Z,13.38
2019-04-22T21:26:03.775Z,12.00
2019-04-22T21:28:44.349Z,11.93
2019-04-22T21:31:23.729Z,12.03
2019-04-22T21:33:51.846Z,12.50
2019-04-22T21:36:30.068Z,12.65
2019-04-22T21:38:59.137Z,12.43
2019-04-22T21:41:30.681Z,12.78
2019-04-22T21:44:11.880Z,13.78
2019-04-22T21:46:42.288Z,12.30
2019-04-22T21:49:23.078Z,12.25
2019-04-22T21:51:55.224Z,12.18
2019-04-22T21:54:30.351Z,12.98
2019-04-22T21:57:09.064Z,13.35
2019-04-22T21:59:30.699Z,12.82
2019-04-22T22:02:11.502Z,12.95
2019-04-22T22:04:43.269Z,12.25
2019-04-22T22:07:05.669Z,12.93
2019-04-22T22:09:47.556Z,12.47
2019-04-22T22:12:24.236Z,13.43
2019-04-22T22:15:04.283Z,14.30
2019-04-22T22:17:31.317Z,13.00
2019-04-22T22:20:03.024Z,13.68
2019-04-22T22:22:52.333Z,14.33
2019-04-22T22:25:14.432Z,12.98
2019-04-22T22:27:47.479Z,12.85
2019-04-22T22:33:04.410Z,13.53
2019-04-22T22:35:36.065Z,13.72
2019-04-22T22:38:06.585Z,12.80
2019-04-22T22:40:27.706Z,13.40
2019-04-22T22:42:58.977Z,13.48
2019-04-22T22:45:37.182Z,12.82
2019-04-22T22:48:33.763Z,12.28
2019-04-22T22:51:02.126Z,14.35
2019-04-22T22:53:40.119Z,13.78
2019-04-22T22:56:13.671Z,13.38
2019-04-22T22:58:42.547Z,11.88
2019-04-22T23:01:21.245Z,14.10
2019-04-22T23:06:26.274Z,13.00
2019-04-22T23:09:02.155Z,12.20
2019-04-22T23:11:46.371Z,13.08
2019-04-22T23:14:02.506Z,13.13
2019-04-22T23:16:25.252Z,13.13
2019-04-22T23:18:49.890Z,13.03
2019-04-22T23:21:30.614Z,12.50
2019-04-22T23:24:14.534Z,12.93
2019-04-22T23:26:45.729Z,12.40
2019-04-22T23:29:16.077Z,13.53
2019-04-22T23:31:50.395Z,13.37
2019-04-22T23:34:24.942Z,13.38
2019-04-22T23:37:04.370Z,12.58
2019-04-22T23:39:51.512Z,11.80
2019-04-22T23:42:19.366Z,12.18
2019-04-22T23:44:52.154Z,15.20
2019-04-22T23:47:14.882Z,12.15
2019-04-22T23:49:53.484Z,12.20
2019-04-22T23:52:30.633Z,11.17
2019-04-22T23:55:13.343Z,10.90
2019-04-22T23:57:43.752Z,12.00
